Portada
METAR-TAF:

METAR-TAF

Aeropuertos :

Aeropuerto de Madrid-Cuatro Vientos

Madrid-Cuatro Vientos, España

latitud: 40-23N, longitud: 003-47W, altitud: 690 m

Observación

El informe se hizo hace 4 horas y 38 minutos, a las 21:30 UTC
Viento 7 kt del oeste-suroeste
Temperatura 23°C
Humedad 38%
Presión 1016 hPa
Visibilidad 10 km o más
sin nubes por debajo de 1500 m y sin presencia de cumulonimbus.

METAR: LEVS 182130Z 24007KT CAVOK 23/08 Q1016

Hora: 04:08 (02:08 UTC)

Pronóstico

El informe se hizo hace 9 horas y 8 minutos, a las 17:00 UTC
Pronóstico válido del 18 a las 18 UTC al 19 a las 03 UTC
Viento 11 kt del suroeste
Visibilidad 10 km o más
sin nubes por debajo de 1500 m y sin presencia de cumulonimbus.
Probabilidad 30% :
Temporalmente
del 18 a las 18 UTC al 18 a las 19 UTC
Viento 15 kt del suroeste con ráfagas de 25 kt

TAF: LEVS 181700Z 1818/1903 23011KT CAVOK PROB30 TEMPO 1818/1819 23015G25KT

Observaciones y pronósticos meteorológicos de más de 4000 aeropuertos (mensajes METAR y TAF).

Los puntos amarillos y rojos representan las estaciones disponibles.

Ponga el ratón en el punto deseado para ver el nombre de la estación.

Haga clic para ver las observaciones y los pronósticos meteorológicos.

Para cambiar el mapa : haga clic en los botones verdes con una cruz de color negro para hacer un zoom, en el botón verde con un guión para alejar o en las flechas verdes para mapas adyacentes.


METAR-TAF: